createdAt,value
2019-03-23T01:04:14.024Z,11.14
2019-03-23T01:09:15.342Z,11.18
2019-03-23T01:14:16.709Z,11.16
2019-03-23T01:19:17.990Z,11.15
2019-03-23T01:24:19.282Z,10.89
2019-03-23T01:29:20.554Z,11.01
2019-03-23T02:31:22.801Z,10.91
2019-03-23T02:36:24.133Z,10.94
2019-03-23T02:41:25.450Z,10.90
2019-03-23T02:46:26.896Z,10.84
2019-03-23T02:51:28.301Z,10.73
2019-03-23T02:56:29.682Z,10.64
2019-03-23T04:04:52.144Z,9.65
2019-03-23T04:09:53.478Z,9.73
2019-03-23T04:14:54.828Z,9.77
2019-03-23T04:19:56.923Z,9.80
2019-03-23T04:24:58.281Z,9.91
2019-03-23T04:29:59.660Z,9.89
2019-03-23T06:03:44.380Z,9.96
2019-03-23T06:08:54.663Z,10.04
2019-03-23T06:13:47.833Z,10.18
2019-03-23T06:18:49.888Z,10.28
2019-03-23T06:23:51.167Z,10.30
2019-03-23T06:28:52.945Z,10.47
2019-03-23T06:33:55.037Z,10.53
2019-03-23T06:39:05.202Z,10.60
2019-03-23T06:43:58.990Z,10.77
2019-03-23T06:49:01.112Z,10.93
2019-03-23T06:54:02.550Z,11.06
2019-03-23T06:59:04.698Z,11.26
2019-03-23T07:04:06.781Z,11.49
2019-03-23T07:09:16.336Z,11.74
2019-03-23T07:14:41.863Z,11.81
2019-03-23T07:19:43.213Z,12.11
2019-03-23T07:24:45.815Z,12.24
2019-03-23T07:29:47.127Z,12.45
2019-03-23T07:34:52.406Z,12.75
2019-03-23T07:39:53.875Z,12.84
2019-03-23T07:44:55.599Z,13.07
2019-03-23T07:49:57.023Z,13.15
2019-03-23T07:54:59.478Z,13.37
2019-03-23T08:00:01.609Z,13.56
2019-03-23T08:05:03.071Z,13.65
2019-03-23T08:10:04.470Z,13.79
2019-03-23T08:15:06.297Z,13.88
2019-03-23T08:20:07.648Z,14.15
2019-03-23T08:25:09.017Z,14.28
2019-03-23T08:30:10.392Z,14.49
2019-03-23T08:35:11.788Z,14.55
2019-03-23T08:40:19.308Z,14.71
2019-03-23T08:45:20.595Z,15.05
2019-03-23T08:50:21.943Z,15.08
2019-03-23T08:55:23.316Z,14.89
2019-03-23T09:00:26.880Z,15.09
2019-03-23T09:05:31.860Z,14.99
2019-03-23T09:10:33.331Z,15.11
2019-03-23T09:15:34.841Z,15.20
2019-03-23T09:20:36.177Z,15.66
2019-03-23T09:25:38.323Z,15.74
2019-03-23T09:30:39.748Z,15.67
2019-03-23T09:35:41.110Z,15.76
2019-03-23T09:40:43.148Z,15.68
2019-03-23T09:45:45.261Z,15.76
2019-03-23T09:50:47.529Z,16.08
2019-03-23T09:55:49.727Z,16.45
2019-03-23T10:00:51.731Z,16.33
2019-03-23T10:05:53.126Z,16.63
2019-03-23T10:10:54.662Z,16.45
2019-03-23T10:15:55.992Z,16.85
2019-03-23T10:20:57.362Z,16.90
2019-03-23T10:25:58.916Z,17.04
2019-03-23T10:37:26.435Z,17.52
2019-03-23T10:42:27.746Z,17.56
2019-03-23T10:47:30.107Z,17.42
2019-03-23T10:52:48.797Z,17.73
2019-03-23T10:57:56.856Z,17.75
2019-03-23T11:02:58.213Z,18.00
2019-03-23T11:07:59.517Z,18.00
2019-03-23T11:13:00.865Z,17.99
2019-03-23T11:18:02.207Z,18.33
2019-03-23T11:23:03.500Z,18.26
2019-03-23T11:28:04.846Z,18.20
2019-03-23T11:33:06.182Z,18.44
2019-03-23T11:38:07.530Z,18.77
2019-03-23T11:43:09.627Z,18.73
2019-03-23T11:48:11.000Z,18.59
2019-03-23T11:53:12.331Z,19.14
2019-03-23T11:58:13.826Z,19.03
2019-03-23T12:03:15.160Z,19.16
2019-03-23T12:08:16.508Z,19.54
2019-03-23T12:13:17.838Z,19.24
2019-03-23T12:18:19.129Z,20.18
2019-03-23T12:23:20.492Z,19.28
2019-03-23T12:28:21.851Z,20.26
2019-03-23T12:33:23.165Z,19.83
2019-03-23T12:38:24.449Z,20.10
2019-03-23T12:43:25.781Z,20.61
2019-03-23T12:48:28.913Z,21.37
2019-03-23T12:53:33.833Z,21.10
2019-03-23T12:58:42.568Z,20.32
2019-03-23T13:03:52.445Z,20.88
2019-03-23T13:08:54.482Z,21.88
2019-03-23T13:13:55.870Z,21.83
2019-03-23T13:18:57.186Z,22.73
2019-03-23T13:23:58.492Z,22.77
2019-03-23T13:28:59.821Z,22.59
2019-03-23T13:34:01.270Z,24.20
2019-03-23T13:39:02.660Z,24.28
2019-03-23T13:44:04.006Z,23.14
2019-03-23T13:49:05.362Z,23.25
2019-03-23T13:54:06.728Z,23.95
2019-03-23T13:59:15.445Z,24.45
2019-03-23T14:04:17.850Z,25.53
2019-03-23T14:09:19.140Z,24.83
2019-03-23T14:14:20.465Z,24.37
2019-03-23T14:19:22.581Z,25.00
2019-03-23T14:24:23.913Z,26.90
2019-03-23T14:29:26.032Z,27.11
2019-03-23T14:34:27.466Z,25.76
2019-03-23T14:39:28.810Z,26.46
2019-03-23T14:44:30.893Z,25.80
2019-03-23T14:49:33.017Z,25.38
2019-03-23T14:54:34.337Z,25.76
2019-03-23T14:59:35.677Z,27.41
2019-03-23T15:04:36.994Z,28.04
2019-03-23T15:09:38.362Z,27.44
2019-03-23T15:14:39.692Z,25.85
2019-03-23T15:19:41.978Z,26.36
2019-03-23T15:24:44.050Z,26.45
2019-03-23T15:29:46.520Z,27.63
2019-03-23T15:34:47.939Z,27.81
2019-03-23T15:39:49.284Z,26.89
2019-03-23T15:44:51.423Z,26.07
2019-03-23T15:49:52.799Z,27.59
2019-03-23T15:54:54.091Z,27.14
2019-03-23T15:59:55.402Z,27.10
2019-03-23T16:04:56.729Z,27.48
2019-03-23T16:09:58.777Z,27.55
2019-03-23T16:15:00.114Z,27.31
2019-03-23T16:20:01.437Z,27.07
2019-03-23T16:25:02.850Z,26.45
2019-03-23T16:30:05.333Z,26.77
2019-03-23T16:35:06.705Z,27.09
2019-03-23T16:40:08.047Z,26.95
2019-03-23T16:45:09.417Z,25.72
2019-03-23T16:50:10.759Z,26.01
2019-03-23T16:55:12.860Z,25.57
2019-03-23T17:00:14.321Z,25.82
2019-03-23T17:05:23.168Z,25.33
2019-03-23T17:10:29.085Z,24.23
2019-03-23T17:15:30.430Z,23.75
2019-03-23T17:20:31.849Z,23.22
2019-03-23T17:25:33.991Z,22.95
2019-03-23T17:30:36.564Z,22.48
2019-03-23T17:35:38.040Z,22.11
2019-03-23T17:40:39.405Z,22.02
2019-03-23T17:45:40.861Z,21.98
2019-03-23T17:50:42.236Z,21.73
2019-03-23T17:55:43.548Z,21.60
2019-03-23T18:00:46.767Z,21.59
2019-03-23T18:05:51.860Z,21.64
2019-03-23T18:10:53.646Z,21.36
2019-03-23T18:15:56.396Z,21.29
2019-03-23T18:20:58.289Z,21.16
2019-03-23T18:25:59.641Z,21.14
2019-03-23T18:31:01.042Z,21.14
2019-03-23T18:36:02.487Z,20.94
2019-03-23T18:41:04.220Z,20.96
2019-03-23T18:46:05.618Z,20.88
2019-03-23T18:51:06.986Z,20.89
2019-03-23T18:56:08.379Z,20.81
2019-03-23T19:01:09.876Z,20.70
2019-03-23T19:06:11.433Z,20.64
2019-03-23T19:11:14.921Z,20.45
2019-03-23T19:16:14.468Z,20.47
2019-03-23T19:21:15.818Z,20.46
2019-03-23T19:26:17.153Z,20.42
2019-03-23T19:31:18.709Z,20.41
2019-03-23T19:36:20.169Z,20.31
2019-03-23T19:41:22.340Z,20.15
2019-03-23T19:46:33.341Z,20.01
2019-03-23T19:51:35.480Z,19.95
2019-03-23T19:56:36.925Z,19.68
2019-03-23T20:02:00.084Z,19.44
2019-03-23T20:07:01.387Z,19.12
2019-03-23T20:12:02.838Z,18.87
2019-03-23T20:17:04.209Z,18.66
2019-03-23T20:22:05.662Z,18.47
2019-03-23T20:27:11.919Z,18.33
2019-03-23T20:32:13.977Z,18.20
2019-03-23T20:37:15.349Z,18.10
2019-03-23T20:42:17.427Z,18.06
2019-03-23T20:47:18.838Z,18.00
2019-03-23T20:52:20.245Z,18.01
2019-03-23T20:57:24.200Z,17.98
2019-03-23T21:02:23.101Z,17.76
2019-03-23T21:07:25.195Z,17.61
2019-03-23T21:12:27.449Z,17.39
2019-03-23T21:17:28.760Z,17.28
2019-03-23T21:22:30.082Z,17.03
2019-03-23T21:27:31.468Z,16.98
2019-03-23T21:32:32.804Z,15.04
2019-03-23T21:37:34.233Z,15.07
2019-03-23T21:42:35.685Z,15.54
2019-03-23T21:47:37.195Z,15.80
2019-03-23T21:52:38.639Z,16.10
2019-03-23T21:57:40.002Z,16.24
2019-03-23T22:02:41.360Z,16.24
2019-03-23T22:07:42.666Z,16.16
2019-03-23T22:12:44.100Z,16.20
2019-03-23T22:17:46.591Z,16.18
2019-03-23T22:22:56.013Z,16.13
2019-03-23T22:28:00.610Z,15.95
2019-03-23T22:33:02.697Z,15.90
2019-03-23T22:38:09.112Z,15.81
2019-03-23T22:43:14.100Z,15.63
2019-03-23T22:48:15.461Z,15.46
2019-03-23T22:53:16.801Z,15.48
2019-03-23T22:58:18.185Z,15.48
2019-03-23T23:35:00.427Z,14.80
2019-03-23T23:40:01.746Z,14.72
2019-03-23T23:45:14.591Z,14.53
2019-03-23T23:50:05.194Z,14.37
2019-03-23T23:55:07.288Z,14.29
